Metsäpalo Mistä: 19-04-2019 10:37 Mihin asti: 20-04-2019 10:30 Varoitus: Metsäpalo Taso: Keltainen info button
suomi:
Ruohikkopalovaara: Ruohikkopalojen vaara on suuri.

Lähimmät METAR asemat

 

EFPO - Pori (mil/Civ), Finland
Distance from station: PLU 42km
Päivitetty: 19/04/2019 11:50
Selkeätä
Selkeätä
 Wind from LLU
Tuuli: LLU 13 km/h
Lämpötila: 13°C
Kastepiste: -2°C
Kosteus: 36%
Ilmanpaine: 1035 hPa
Yhteenveto: Selkeätä
Visibility: greater than 10 km
2019/04/19 08:50 EFPO 190850Z AUTO 29007KT 230V330 CAVOK 13/M02 Q1035
EFTU - Turku/Abo, Finland
Distance from station: E 68km
Päivitetty: 19/04/2019 12:20
Selkeätä
Selkeätä
 Wind from PLU
Tuuli: PLU 11 km/h
Lämpötila: 15°C
Kastepiste: -3°C
Kosteus: 29%
Ilmanpaine: 1035 hPa
Yhteenveto: Selkeätä
Visibility: greater than 10 km
2019/04/19 09:20 EFTU 190920Z AUTO 34006KT 280V030 CAVOK 15/M03 Q1035
 
EFTP - Tampere/Pirkkala, Finland
Distance from station: IKO 84km
Päivitetty: 19/04/2019 12:20
Selkeätä
Selkeätä
 Wind from L
Tuuli: L 17 km/h
Lämpötila: 13°C
Kastepiste: -3°C
Kosteus: 33%
Ilmanpaine: 1034 hPa
Yhteenveto: Selkeätä
Visibility: greater than 10 km
2019/04/19 09:20 EFTP 190920Z AUTO 27009KT 240V310 CAVOK 13/M03 Q1034